This is the latest recevied weather packets stored in our database for station/object DL3NBY. If no packets are shown the sender has not sent any weather packets the latest 10 day(s).
| Time | Temp. | Humidity | Pressure | Rain* | Wind** | Luminosity | Snow |
|---|---|---|---|---|---|---|---|
| 1777529431 | 5.56° C | 55% | 1029.7 hPa | 0 mm | - | - | - |
| 1777522252 | -1.11° C | 84% | 1029 hPa | 0 mm | - | - | - |
| 1777510236 | - | 1% | 1028.2 hPa | 0 mm | - | - | - |
| 1777508425 | - | 1% | 1028.1 hPa | 0 mm | - | - | - |
| 1777500641 | - | 1% | 1027.3 hPa | 0 mm | - | - | - |
| 1777500033 | - | 1% | 1027.2 hPa | 0 mm | - | - | - |
| 1777498223 | - | 1% | 1026.8 hPa | 0 mm | - | - | - |
| 1777497017 | - | 1% | 1026.7 hPa | 0 mm | - | - | - |
| 1777495267 | - | 1% | 1026.3 hPa | 0 mm | - | - | - |
| 1777483858 | 13.33° C | 41% | 1024 hPa | 0 mm | - | - | - |
| 1777481441 | 14.44° C | 38% | 1023.5 hPa | 0 mm | - | - | - |
| 1777477822 | 16.11° C | 36% | 1023.1 hPa | 0 mm | - | - | - |
| 1777474867 | 17.22° C | 37% | 1023 hPa | 0 mm | - | - | - |
| 1777473057 | 17.22° C | 35% | 1022.8 hPa | 0 mm | - | - | - |
| 1777471851 | 17.78° C | 34% | 1022.9 hPa | 0 mm | - | - | - |
| 1777465235 | 17.22° C | 34% | 1022.7 hPa | 0 mm | - | - | - |
| 1777463466 | 17.22° C | 35% | 1023 hPa | 0 mm | - | - | - |
| 1777462260 | 16.67° C | 35% | 1023 hPa | 0 mm | - | - | - |
| 1777459244 | 16.11° C | 35% | 1023.2 hPa | 0 mm | - | - | - |
| 1777458640 | 16.11° C | 35% | 1023.2 hPa | 0 mm | - | - | - |
| 1777457434 | 15.56° C | 37% | 1023.3 hPa | 0 mm | - | - | - |
| 1777455021 | 14.44° C | 37% | 1023.4 hPa | 0 mm | - | - | - |
| 1777454418 | 14.44° C | 36% | 1023.5 hPa | 0 mm | - | - | - |
| 1777452066 | 13.89° C | 39% | 1023.5 hPa | 0 mm | - | - | - |
| 1777450256 | 13.33° C | 41% | 1023.4 hPa | 0 mm | - | - | - |
* Rain latest hour (hover to see other rain measurements)
** Current wind speed in m/s (hover to see current wind gust speed)